Time;durP1;ratioP1;P1;durP2;ratioP2;P2;SDS_P1;SDS_P2;PMS_P1;PMS_P2;Temp;Humidity;BMP_temperature;BMP_pressure;BME280_temperature;BME280_humidity;BME280_pressure;Samples;Min_cycle;Max_cycle;Signal;HPM_P1;HPM_P2
2021/07/04 00:02:06;;;;;;;0.20;0.20;;;;;;;21.62;67.04;101289.09;5018797;28;20092;-84
2021/07/04 00:04:33;;;;;;;3.20;1.02;;;;;;;21.59;67.17;101283.03;5030781;28;20504;-86
2021/07/04 00:06:59;;;;;;;0.55;0.55;;;;;;;21.56;67.42;101280.50;5023348;28;20460;-88
2021/07/04 00:09:26;;;;;;;0.20;0.20;;;;;;;21.58;67.67;101279.47;5023406;28;20030;-86
2021/07/04 00:11:53;;;;;;;1.30;0.73;;;;;;;21.60;67.53;101282.94;5030906;28;20034;-86
2021/07/04 00:14:19;;;;;;;0.10;0.10;;;;;;;21.64;67.66;101283.63;5018470;28;20542;-87
2021/07/04 00:16:46;;;;;;;0.47;0.47;;;;;;;21.67;67.92;101275.38;5033984;28;20017;-85
2021/07/04 00:19:13;;;;;;;1.10;1.10;;;;;;;21.67;68.06;101272.66;5025385;28;20382;-86
2021/07/04 00:21:39;;;;;;;0.30;0.30;;;;;;;21.72;67.72;101280.44;5021867;28;20026;-86
2021/07/04 00:24:07;;;;;;;0.43;0.43;;;;;;;21.71;67.97;101276.00;5017903;28;20025;-85
2021/07/04 00:26:34;;;;;;;0.13;0.13;;;;;;;21.72;68.14;101273.25;5029150;28;20026;-83
2021/07/04 00:29:00;;;;;;;0.25;0.25;;;;;;;21.77;68.00;101268.44;5022189;28;20045;-84
2021/07/04 00:31:27;;;;;;;0.52;0.52;;;;;;;21.78;67.92;101263.91;5026761;28;20034;-84
2021/07/04 00:33:54;;;;;;;0.10;0.10;;;;;;;21.79;67.96;101266.53;5019098;28;20041;-84
2021/07/04 00:36:20;;;;;;;1.08;0.30;;;;;;;21.79;68.08;101265.66;5030603;28;20021;-84
2021/07/04 00:38:47;;;;;;;0.52;0.50;;;;;;;21.82;67.77;101265.47;5021371;28;20022;-85
2021/07/04 00:41:13;;;;;;;0.15;0.15;;;;;;;21.86;67.74;101258.03;5024548;28;20049;-83
2021/07/04 00:43:42;;;;;;;0.90;0.40;;;;;;;21.85;67.90;101257.19;5020563;28;20168;-84
2021/07/04 00:46:09;;;;;;;0.10;0.10;;;;;;;21.88;67.59;101258.81;5030792;28;20025;-84
2021/07/04 00:48:35;;;;;;;0.13;0.13;;;;;;;21.89;68.00;101257.88;5019674;28;20469;-84
2021/07/04 00:51:03;;;;;;;0.10;0.10;;;;;;;21.91;67.67;101264.03;5025559;28;20105;-84
2021/07/04 00:53:29;;;;;;;0.10;0.10;;;;;;;21.91;67.39;101259.50;5019443;28;20105;-84
2021/07/04 00:55:56;;;;;;;1.17;1.15;;;;;;;21.89;67.60;101255.16;5030311;28;20362;-84
2021/07/04 00:58:22;;;;;;;0.10;0.10;;;;;;;21.89;67.65;101260.56;5017670;28;20104;-84
2021/07/04 01:00:49;;;;;;;0.10;0.10;;;;;;;21.91;67.47;101253.25;5027134;28;20026;-84
2021/07/04 01:03:15;;;;;;;0.50;0.50;;;;;;;21.91;67.70;101254.09;5024764;28;20124;-84
2021/07/04 01:05:44;;;;;;;0.10;0.10;;;;;;;21.90;67.83;101241.56;5019935;28;20108;-83
2021/07/04 01:08:10;;;;;;;0.05;0.05;;;;;;;21.90;67.73;101246.13;5030295;28;20488;-83
2021/07/04 01:10:39;;;;;;;0.77;0.77;;;;;;;21.91;67.84;101235.22;5034791;28;20052;-84
2021/07/04 01:13:07;;;;;;;0.10;0.10;;;;;;;21.93;67.81;101233.31;5024622;28;20040;-85
2021/07/04 01:15:34;;;;;;;0.75;0.65;;;;;;;21.93;67.72;101236.00;5027087;28;20021;-84
2021/07/04 01:18:04;;;;;;;0.03;0.03;;;;;;;21.96;67.46;101226.84;5017461;28;20026;-83
2021/07/04 01:20:31;;;;;;;0.30;0.30;;;;;;;21.96;67.86;101222.31;5028375;28;20449;-84
2021/07/04 01:23:00;;;;;;;0.10;0.10;;;;;;;21.99;67.63;101234.75;5032231;28;20116;-84
2021/07/04 01:25:29;;;;;;;1.27;1.20;;;;;;;22.02;67.63;101228.28;5033289;28;20060;-83
2021/07/04 01:27:57;;;;;;;0.17;0.17;;;;;;;22.02;67.35;101222.88;5033922;28;20033;-83
2021/07/04 01:30:25;;;;;;;0.10;0.10;;;;;;;22.02;67.39;101220.19;5015951;28;20030;-84
2021/07/04 01:32:52;;;;;;;0.05;0.05;;;;;;;22.02;67.30;101217.50;5026534;28;20072;-84
2021/07/04 01:35:19;;;;;;;0.43;0.43;;;;;;;21.95;67.57;101220.56;5024652;28;20087;-84
2021/07/04 01:37:45;;;;;;;0.57;0.57;;;;;;;21.96;67.82;101221.47;5017290;28;20037;-84
2021/07/04 01:40:19;;;;;;;0.20;0.20;;;;;;;21.98;68.02;101219.50;5035148;28;20086;-83
2021/07/04 01:42:59;;;;;;;0.50;0.50;;;;;;;21.90;68.09;101222.69;5036372;28;20521;-84
2021/07/04 01:45:37;;;;;;;0.63;0.63;;;;;;;21.96;67.53;101219.63;5027297;28;20036;-84
2021/07/04 01:48:11;;;;;;;1.15;0.95;;;;;;;21.81;67.73;101215.19;5038347;28;20037;-83
2021/07/04 01:50:45;;;;;;;0.30;0.28;;;;;;;21.89;67.92;101223.66;5018958;28;20020;-83
2021/07/04 01:53:13;;;;;;;0.30;0.30;;;;;;;21.78;68.65;101215.34;5031900;28;20103;-83
2021/07/04 01:55:40;;;;;;;0.28;0.28;;;;;;;21.69;68.43;101216.78;5025133;28;20095;-84
2021/07/04 01:58:06;;;;;;;0.20;0.20;;;;;;;21.75;68.24;101215.56;5031727;28;20026;-83
2021/07/04 02:00:36;;;;;;;0.77;0.77;;;;;;;21.67;68.28;101215.16;5017766;28;20022;-84
2021/07/04 02:03:06;;;;;;;1.05;1.05;;;;;;;21.65;68.13;101210.72;5032770;28;20084;-84
2021/07/04 02:05:33;;;;;;;1.35;1.15;;;;;;;21.58;68.51;101217.47;5032830;28;20097;-84
2021/07/04 02:07:59;;;;;;;0.63;0.63;;;;;;;21.52;67.62;101212.41;5032527;28;20029;-84
2021/07/04 02:10:30;;;;;;;0.63;0.63;;;;;;;21.49;68.03;101210.75;5029372;28;20370;-84
2021/07/04 02:12:57;;;;;;;0.05;0.05;;;;;;;21.45;67.53;101213.72;5021652;28;20031;-85
2021/07/04 02:15:27;;;;;;;0.60;0.60;;;;;;;21.27;69.00;101213.88;5024899;28;20040;-83
2021/07/04 02:17:53;;;;;;;0.45;0.45;;;;;;;21.35;68.31;101213.41;5032916;28;20029;-84
2021/07/04 02:23:17;;;;;;;0.50;0.50;;;;;;;21.25;68.59;101212.22;5061944;28;20406;-84
2021/07/04 02:25:45;;;;;;;0.20;0.20;;;;;;;21.24;68.17;101211.34;5070578;28;20033;-85
2021/07/04 02:28:15;;;;;;;1.77;1.67;;;;;;;21.26;67.79;101212.13;5068223;28;20036;-85
2021/07/04 02:30:42;;;;;;;2.53;1.50;;;;;;;21.22;68.00;101221.38;5056263;28;20072;-85
2021/07/04 02:33:12;;;;;;;0.15;0.15;;;;;;;21.21;68.14;101216.94;5060438;28;20431;-85
2021/07/04 02:35:41;;;;;;;0.30;0.30;;;;;;;21.20;67.89;101217.88;5063943;28;20028;-85
2021/07/04 02:38:09;;;;;;;0.40;0.40;;;;;;;21.16;68.17;101213.66;5053587;28;20357;-84
2021/07/04 02:40:36;;;;;;;0.38;0.38;;;;;;;21.14;67.90;101212.84;5065390;28;20049;-84
2021/07/04 02:43:04;;;;;;;0.73;0.73;;;;;;;21.15;68.08;101219.97;5058904;28;20468;-84
2021/07/04 02:45:31;;;;;;;0.43;0.43;;;;;;;21.12;68.40;101214.75;5057966;28;20029;-84
2021/07/04 02:47:57;;;;;;;0.17;0.17;;;;;;;21.13;68.55;101211.13;5061775;28;20070;-84
2021/07/04 02:50:24;;;;;;;6.18;2.17;;;;;;;21.11;68.58;101204.94;5066469;28;20021;-84
2021/07/04 02:52:52;;;;;;;0.85;0.85;;;;;;;21.08;68.59;101218.59;5057243;28;20553;-83
2021/07/04 02:55:21;;;;;;;0.90;0.90;;;;;;;21.09;68.30;101223.03;5056675;28;20472;-83
2021/07/04 02:57:48;;;;;;;0.13;0.13;;;;;;;20.95;69.50;101221.16;5054896;28;20026;-84
2021/07/04 03:00:17;;;;;;;2.03;0.57;;;;;;;21.08;68.46;101218.59;5066209;28;20549;-84
2021/07/04 03:02:44;;;;;;;3.50;1.02;;;;;;;20.85;69.35;101232.44;5056241;28;20111;-84
2021/07/04 03:05:11;;;;;;;0.20;0.20;;;;;;;20.96;68.92;101223.75;5058399;28;20025;-84
2021/07/04 03:07:38;;;;;;;0.85;0.85;;;;;;;20.93;68.60;101217.66;5063153;28;20025;-84
2021/07/04 03:10:07;;;;;;;1.20;1.20;;;;;;;20.83;69.22;101223.56;5053082;28;20021;-84
2021/07/04 03:12:34;;;;;;;2.08;1.95;;;;;;;20.90;68.50;101218.72;5061719;28;20021;-84
2021/07/04 03:15:01;;;;;;;5.25;2.85;;;;;;;20.93;68.33;101223.91;5069436;28;20468;-84
2021/07/04 03:17:27;;;;;;;2.03;1.92;;;;;;;20.91;68.53;101217.75;5057245;28;20056;-84
2021/07/04 03:19:54;;;;;;;1.05;1.05;;;;;;;20.94;68.45;101214.88;5065352;28;20029;-84
2021/07/04 03:22:20;;;;;;;4.70;0.52;;;;;;;20.98;68.47;101211.03;5065964;28;20095;-84
2021/07/04 03:24:47;;;;;;;0.52;0.52;;;;;;;21.00;68.25;101219.91;5056438;28;20108;-85
2021/07/04 03:27:13;;;;;;;2.38;1.00;;;;;;;21.00;68.27;101217.22;5059082;28;20120;-84
2021/07/04 03:29:40;;;;;;;0.80;0.80;;;;;;;20.99;68.53;101222.69;5063778;28;20064;-84
2021/07/04 03:32:07;;;;;;;0.60;0.60;;;;;;;20.99;68.66;101220.00;5062676;28;20044;-85
2021/07/04 03:34:34;;;;;;;0.70;0.70;;;;;;;20.96;68.82;101212.97;5055674;28;20074;-85
2021/07/04 03:37:00;;;;;;;0.63;0.63;;;;;;;21.00;68.58;101213.66;5054452;28;20035;-84
2021/07/04 03:39:28;;;;;;;2.22;1.83;;;;;;;21.03;68.72;101202.69;5055715;28;20032;-84
2021/07/04 03:41:54;;;;;;;0.32;0.32;;;;;;;21.00;68.75;101208.28;5048878;28;20036;-85
2021/07/04 03:44:21;;;;;;;0.55;0.55;;;;;;;20.98;68.80;101208.34;5051915;28;20025;-84
2021/07/04 03:46:47;;;;;;;0.20;0.20;;;;;;;21.01;68.66;101204.63;5042268;28;20029;-84
2021/07/04 03:49:14;;;;;;;0.60;0.60;;;;;;;21.00;68.66;101209.13;5045140;28;20040;-84
2021/07/04 03:51:40;;;;;;;1.08;1.08;;;;;;;21.00;68.21;101209.13;5045213;28;20561;-84
2021/07/04 03:54:07;;;;;;;1.75;1.50;;;;;;;20.96;68.49;101212.97;5054096;28;20029;-84
2021/07/04 03:56:33;;;;;;;2.05;1.33;;;;;;;21.04;68.33;101211.66;5055250;28;20025;-84
2021/07/04 03:59:00;;;;;;;0.30;0.30;;;;;;;21.03;68.64;101212.63;5055106;28;20033;-84
2021/07/04 04:01:26;;;;;;;1.20;1.10;;;;;;;21.09;68.22;101217.66;5055196;28;20032;-84
2021/07/04 04:03:53;;;;;;;0.70;0.70;;;;;;;21.10;68.36;101216.69;5055321;28;20498;-83
2021/07/04 04:06:19;;;;;;;0.82;0.82;;;;;;;21.13;68.62;101211.13;5038724;28;20052;-84
2021/07/04 04:08:46;;;;;;;0.45;0.45;;;;;;;21.18;68.42;101217.09;5048535;28;20389;-84
2021/07/04 04:11:13;;;;;;;0.15;0.15;;;;;;;21.22;68.54;101212.41;5045323;28;20033;-84
2021/07/04 04:13:39;;;;;;;0.17;0.17;;;;;;;21.24;68.43;101222.13;5040996;28;20025;-84
2021/07/04 04:16:06;;;;;;;2.50;2.38;;;;;;;21.28;68.20;101215.63;5050735;28;20120;-84
2021/07/04 04:18:36;;;;;;;0.65;0.65;;;;;;;21.27;68.46;101216.56;5039855;28;20100;-85
2021/07/04 04:21:05;;;;;;;0.57;0.38;;;;;;;21.32;68.09;101214.47;5045709;28;20030;-85
2021/07/04 04:23:32;;;;;;;1.38;1.35;;;;;;;21.27;68.26;101211.19;5034746;28;20038;-84
2021/07/04 04:25:58;;;;;;;0.68;0.60;;;;;;;21.26;68.17;101212.13;5051378;28;20371;-85
2021/07/04 04:28:24;;;;;;;0.10;0.10;;;;;;;21.26;68.12;101209.44;5038508;28;20025;-84
2021/07/04 04:30:51;;;;;;;0.22;0.22;;;;;;;21.24;68.14;101208.66;5047481;28;20435;-84
2021/07/04 04:33:18;;;;;;;0.30;0.30;;;;;;;21.24;68.44;101210.50;5045906;28;20040;-84
2021/07/04 04:35:44;;;;;;;1.73;1.63;;;;;;;21.26;68.45;101214.81;5039953;28;20428;-84
2021/07/04 04:38:11;;;;;;;0.10;0.10;;;;;;;21.24;68.97;101208.66;5051047;28;20037;-84
2021/07/04 04:40:37;;;;;;;0.80;0.73;;;;;;;21.27;68.67;101215.69;5040099;28;20062;-84
2021/07/04 04:43:03;;;;;;;0.20;0.20;;;;;;;21.31;68.47;101212.72;5048476;28;20036;-84
2021/07/04 04:45:30;;;;;;;0.93;0.77;;;;;;;21.33;68.20;101215.31;5040932;28;20026;-84
2021/07/04 04:47:56;;;;;;;0.75;0.73;;;;;;;21.13;68.85;101205.72;5050326;28;20035;-84
2021/07/04 04:50:23;;;;;;;0.90;0.90;;;;;;;21.27;68.42;101211.19;5037683;28;20025;-84
2021/07/04 04:52:49;;;;;;;0.45;0.45;;;;;;;21.26;68.57;101209.44;5047235;28;20032;-84
2021/07/04 04:55:16;;;;;;;2.60;0.82;;;;;;;21.24;68.57;101211.34;5046024;28;20060;-84
2021/07/04 04:57:42;;;;;;;4.70;1.23;;;;;;;21.26;68.11;101211.25;5040261;28;20485;-85
2021/07/04 05:00:12;;;;;;;1.60;1.50;;;;;;;21.32;68.08;101206.38;5050703;28;20548;-84
2021/07/04 05:02:38;;;;;;;3.67;1.63;;;;;;;21.29;68.08;101208.38;5039632;28;20033;-84
2021/07/04 05:05:06;;;;;;;1.38;1.27;;;;;;;21.33;67.93;101201.84;5043574;28;20032;-84
2021/07/04 05:07:33;;;;;;;0.10;0.10;;;;;;;21.33;67.94;101210.81;5047054;28;20066;-85
2021/07/04 05:10:00;;;;;;;1.90;1.67;;;;;;;21.37;67.86;101207.91;5037493;28;20021;-84
2021/07/04 05:12:26;;;;;;;1.10;1.10;;;;;;;21.37;67.71;101210.63;5050125;28;20029;-84
2021/07/04 05:14:54;;;;;;;2.90;0.77;;;;;;;21.40;67.81;101205.91;5041275;28;20503;-85
2021/07/04 05:17:20;;;;;;;1.50;1.33;;;;;;;21.40;67.72;101211.31;5042936;28;20033;-84
2021/07/04 05:19:48;;;;;;;2.45;1.75;;;;;;;21.45;67.59;101216.44;5048727;28;20021;-85
2021/07/04 05:22:14;;;;;;;0.52;0.52;;;;;;;21.46;67.36;101210.09;5036827;28;20457;-84
2021/07/04 05:24:40;;;;;;;0.57;0.57;;;;;;;21.55;67.08;101208.66;5047826;28;20427;-84
2021/07/04 05:27:07;;;;;;;1.00;1.00;;;;;;;21.48;67.11;101209.03;5043180;28;20032;-84
2021/07/04 05:29:33;;;;;;;1.27;1.20;;;;;;;21.58;66.67;101203.97;5040496;28;20033;-84
2021/07/04 05:32:00;;;;;;;1.23;1.13;;;;;;;21.57;66.47;101199.53;5048829;28;20404;-84
2021/07/04 05:34:27;;;;;;;3.80;1.63;;;;;;;21.56;66.31;101195.09;5037843;28;20028;-84
2021/07/04 05:36:53;;;;;;;2.28;1.35;;;;;;;21.47;66.35;101195.63;5045990;28;20068;-85
2021/07/04 05:39:20;;;;;;;0.68;0.68;;;;;;;21.37;66.83;101202.53;5044975;28;20037;-86
2021/07/04 05:41:46;;;;;;;2.53;1.23;;;;;;;21.39;66.72;101195.22;5038612;28;20081;-86
2021/07/04 05:44:12;;;;;;;1.27;1.08;;;;;;;21.33;66.73;101189.25;5049571;28;20120;-86
2021/07/04 05:46:39;;;;;;;0.52;0.52;;;;;;;21.31;66.80;101183.06;5039230;28;20039;-86
2021/07/04 05:49:05;;;;;;;5.50;3.05;;;;;;;21.29;67.01;101195.75;5043884;28;20052;-86
2021/07/04 05:51:32;;;;;;;0.20;0.20;;;;;;;21.31;66.91;101188.47;5046558;28;20115;-86
2021/07/04 05:53:58;;;;;;;0.50;0.50;;;;;;;21.37;66.75;101194.44;5036856;28;20033;-85
2021/07/04 05:56:25;;;;;;;1.05;1.05;;;;;;;21.34;66.91;101185.56;5049013;28;20562;-85
2021/07/04 05:58:51;;;;;;;0.52;0.50;;;;;;;21.36;66.90;101193.59;5040656;28;20025;-85
2021/07/04 06:01:18;;;;;;;1.30;1.20;;;;;;;21.35;66.75;101189.16;5041609;28;20448;-84
2021/07/04 06:03:45;;;;;;;0.28;0.28;;;;;;;21.37;67.03;101183.66;5048266;28;20029;-86
2021/07/04 06:06:11;;;;;;;2.85;0.73;;;;;;;21.36;67.26;101177.41;5036524;28;20507;-85
2021/07/04 06:08:37;;;;;;;0.57;0.57;;;;;;;21.39;67.16;101179.91;5047876;28;20025;-85
2021/07/04 06:11:04;;;;;;;0.10;0.10;;;;;;;21.47;67.05;101180.31;5042381;28;20111;-85
2021/07/04 06:13:30;;;;;;;1.55;1.10;;;;;;;21.49;66.75;101183.78;5040569;28;20087;-85
2021/07/04 06:15:57;;;;;;;0.43;0.43;;;;;;;21.47;66.68;101176.75;5049109;28;20057;-85
2021/07/04 06:18:24;;;;;;;6.03;1.98;;;;;;;21.57;66.67;101172.59;5015925;28;20036;-84
2021/07/04 06:20:51;;;;;;;2.10;0.93;;;;;;;21.61;66.48;101162.47;5040106;28;20089;-84
2021/07/04 06:23:17;;;;;;;0.82;0.82;;;;;;;21.67;66.46;101169.31;5042341;28;20029;-84
2021/07/04 06:25:43;;;;;;;6.45;3.05;;;;;;;21.64;66.56;101165.81;5039076;22;20033;-80
2021/07/04 06:28:11;;;;;;;0.85;0.85;;;;;;;21.76;66.13;101166.06;5029534;28;20030;-81
2021/07/04 06:30:37;;;;;;;0.55;0.55;;;;;;;21.75;66.10;101161.63;5012756;28;20389;-79
2021/07/04 06:33:04;;;;;;;0.57;0.57;;;;;;;21.71;66.29;101163.63;5024689;28;20076;-79
2021/07/04 06:35:30;;;;;;;1.13;1.13;;;;;;;21.70;66.33;101161.91;5007541;28;20066;-80
2021/07/04 06:37:57;;;;;;;0.13;0.13;;;;;;;21.78;65.81;101158.72;4992191;28;20037;-81
2021/07/04 06:40:24;;;;;;;0.65;0.65;;;;;;;21.84;65.87;101160.19;5013060;28;20121;-80
2021/07/04 06:42:50;;;;;;;2.28;1.23;;;;;;;21.90;65.97;101154.41;5012551;28;20037;-80
2021/07/04 06:45:17;;;;;;;3.15;2.95;;;;;;;21.96;65.98;101159.41;5008963;28;20362;-80
2021/07/04 06:47:46;;;;;;;0.25;0.25;;;;;;;22.02;65.63;101158.13;5023976;28;20048;-81
2021/07/04 06:50:15;;;;;;;0.20;0.20;;;;;;;22.05;65.47;101156.13;5029372;28;20021;-80
2021/07/04 06:52:42;;;;;;;0.70;0.55;;;;;;;22.07;64.96;101161.41;5019184;28;20033;-81
2021/07/04 06:55:10;;;;;;;0.30;0.30;;;;;;;22.16;64.84;101155.44;5005538;28;20038;-80
2021/07/04 06:57:37;;;;;;;0.08;0.08;;;;;;;22.28;64.79;101146.56;5008743;28;20034;-80
2021/07/04 07:00:08;;;;;;;0.65;0.65;;;;;;;22.33;64.69;101137.28;5009043;28;20555;-80
2021/07/04 07:02:36;;;;;;;0.80;0.80;;;;;;;22.40;64.76;101130.56;5009304;28;20066;-80
2021/07/04 07:05:04;;;;;;;0.65;0.65;;;;;;;22.50;64.28;101133.53;5011351;28;20374;-81
2021/07/04 07:07:32;;;;;;;0.28;0.28;;;;;;;22.51;62.71;101130.72;5011674;28;20018;-79
2021/07/04 07:09:59;;;;;;;0.50;0.50;;;;;;;22.72;62.12;101130.28;5015714;28;20033;-80
2021/07/04 07:12:26;;;;;;;0.38;0.38;;;;;;;22.97;63.26;101134.00;5012752;28;20014;-80
2021/07/04 07:14:52;;;;;;;1.85;0.63;;;;;;;23.12;62.09;101127.56;5015281;28;20022;-80
2021/07/04 07:17:19;;;;;;;2.00;0.63;;;;;;;23.27;61.79;101131.94;5015820;28;20018;-81
2021/07/04 07:19:46;;;;;;;0.45;0.45;;;;;;;23.32;59.19;101133.47;5012519;28;20041;-80
2021/07/04 07:22:13;;;;;;;0.50;0.43;;;;;;;23.18;58.94;101137.97;5015792;28;20026;-80
2021/07/04 07:24:39;;;;;;;0.82;0.38;;;;;;;23.36;60.87;101134.97;5014876;28;20037;-81
2021/07/04 07:27:06;;;;;;;0.10;0.10;;;;;;;23.40;59.11;101131.06;5013179;28;20065;-80
2021/07/04 07:29:33;;;;;;;0.47;0.47;;;;;;;23.33;57.60;101135.16;5016420;28;20041;-80
2021/07/04 07:31:59;;;;;;;0.55;0.55;;;;;;;23.39;57.90;101145.56;5015507;28;20080;-80
2021/07/04 07:34:26;;;;;;;0.47;0.47;;;;;;;23.22;58.11;101149.44;5016303;28;20117;-80
2021/07/04 07:36:53;;;;;;;1.33;0.35;;;;;;;23.08;56.36;101150.38;5015860;28;20040;-80
2021/07/04 07:39:19;;;;;;;0.10;0.10;;;;;;;23.21;57.31;101147.72;5007225;28;20038;-80
2021/07/04 07:41:46;;;;;;;0.10;0.10;;;;;;;23.32;57.70;101147.00;5010230;28;20075;-81
2021/07/04 07:44:19;;;;;;;0.10;0.10;;;;;;;23.05;55.73;101142.47;5016338;28;20031;-81
2021/07/04 07:46:48;;;;;;;0.28;0.28;;;;;;;23.26;57.51;101141.03;5022286;28;20036;-82
2021/07/04 07:49:15;;;;;;;0.32;0.32;;;;;;;23.35;57.72;101149.47;5035347;28;20072;-81
2021/07/04 07:51:42;;;;;;;0.03;0.03;;;;;;;23.45;57.03;101134.31;5016845;28;20033;-81
2021/07/04 07:54:10;;;;;;;0.10;0.10;;;;;;;23.45;56.35;101136.16;4996203;28;20125;-81
2021/07/04 07:56:36;;;;;;;0.40;0.40;;;;;;;23.46;54.22;101130.66;5035671;22;20049;-83
2021/07/04 07:59:03;;;;;;;0.20;0.20;;;;;;;23.68;56.03;101124.59;5009144;28;20088;-83
2021/07/04 08:01:48;;;;;;;0.10;0.10;;;;;;;23.95;56.62;101120.03;5015959;28;20037;-85
2021/07/04 08:04:14;;;;;;;0.17;0.17;;;;;;;23.94;55.34;101113.78;5016023;28;20025;-84
2021/07/04 08:06:41;;;;;;;0.45;0.45;;;;;;;24.13;55.32;101121.41;4996608;28;20132;-84
2021/07/04 08:09:08;;;;;;;0.08;0.08;;;;;;;24.20;55.42;101116.41;4992069;28;20026;-84
2021/07/04 08:11:34;;;;;;;1.65;0.68;;;;;;;24.09;54.66;101122.63;4997456;28;20401;-85
2021/07/04 08:14:01;;;;;;;0.80;0.57;;;;;;;24.21;55.00;101119.03;4992018;28;20367;-85
2021/07/04 08:16:33;;;;;;;0.30;0.30;;;;;;;24.10;54.53;101118.94;4991781;28;20027;-85
2021/07/04 08:19:00;;;;;;;0.20;0.20;;;;;;;24.01;55.00;101115.06;4994025;28;20028;-85
2021/07/04 08:21:28;;;;;;;0.13;0.13;;;;;;;23.83;54.30;101109.09;4991556;28;20038;-85
2021/07/04 08:23:55;;;;;;;0.80;0.80;;;;;;;23.94;54.66;101108.38;4994273;28;20026;-85
2021/07/04 08:26:22;;;;;;;0.20;0.20;;;;;;;23.94;55.06;101107.50;4992751;28;20053;-85
2021/07/04 08:28:49;;;;;;;0.20;0.20;;;;;;;23.80;54.83;101106.63;4993654;28;20026;-85
2021/07/04 08:31:15;;;;;;;1.75;0.65;;;;;;;23.73;54.35;101105.34;4996146;28;20061;-85
2021/07/04 08:33:42;;;;;;;0.35;0.30;;;;;;;23.87;54.22;101104.34;4992149;28;20405;-85
2021/07/04 08:36:09;;;;;;;0.63;0.63;;;;;;;23.92;54.31;101106.75;4992844;28;20030;-85
2021/07/04 08:38:37;;;;;;;0.10;0.10;;;;;;;23.86;54.49;101106.19;4993774;28;20027;-86
2021/07/04 08:41:04;;;;;;;0.20;0.20;;;;;;;23.96;54.70;101098.28;4990689;28;20546;-85
2021/07/04 08:43:34;;;;;;;0.10;0.10;;;;;;;24.03;55.20;101091.44;4992708;28;20034;-85
2021/07/04 08:46:10;;;;;;;0.10;0.10;;;;;;;24.07;52.91;101092.09;4992204;28;20089;-84
2021/07/04 08:48:38;;;;;;;0.17;0.17;;;;;;;23.96;51.64;101097.44;4991882;28;20093;-85
2021/07/04 08:51:06;;;;;;;0.20;0.20;;;;;;;24.00;53.09;101097.09;4993574;28;20050;-85
2021/07/04 08:53:32;;;;;;;0.10;0.10;;;;;;;24.08;52.84;101093.81;4985548;28;20042;-85
2021/07/04 08:55:59;;;;;;;0.10;0.10;;;;;;;24.09;51.97;101103.69;4986384;28;20037;-84
2021/07/04 08:58:27;;;;;;;0.10;0.10;;;;;;;24.22;52.76;101107.22;4984024;28;20418;-85
2021/07/04 09:03:56;;;;;;;0.10;0.10;;;;;;;24.19;51.67;101106.59;5071903;27;20179;-84
2021/07/04 09:06:44;;;;;;;0.52;0.52;;;;;;;24.17;52.77;101105.81;5042394;28;20033;-84
2021/07/04 09:09:31;;;;;;;0.10;0.10;;;;;;;24.09;52.49;101100.97;5035726;28;20083;-83
2021/07/04 09:14:46;;;;;;;0.10;0.10;;;;;;;23.96;50.09;101101.00;5136014;27;20835;-83
2021/07/04 09:17:16;;;;;;;1.13;0.40;;;;;;;24.20;51.07;101098.34;5104994;27;20075;-84
2021/07/04 09:19:56;;;;;;;0.10;0.10;;;;;;;24.30;51.17;101098.53;5125121;28;20059;-83
2021/07/04 09:22:35;;;;;;;0.10;0.10;;;;;;;24.42;50.64;101093.19;5123213;28;20035;-80
2021/07/04 09:25:10;;;;;;;0.20;0.20;;;;;;;24.47;51.24;101093.69;5119829;28;20019;-85
2021/07/04 09:27:36;;;;;;;0.00;0.00;;;;;;;24.65;51.31;101097.75;5118165;28;20038;-84
2021/07/04 09:30:05;;;;;;;0.20;0.20;;;;;;;24.83;51.54;101092.75;5119024;27;20057;-82
2021/07/04 09:32:31;;;;;;;0.10;0.10;;;;;;;24.87;49.42;101088.84;5117338;28;20411;-82
2021/07/04 09:37:44;;;;;;;0.10;0.10;;;;;;;24.68;49.35;101077.69;5074374;27;20426;-85
2021/07/04 09:40:16;;;;;;;0.15;0.15;;;;;;;24.89;50.52;101068.91;5067989;28;20032;-87
2021/07/04 09:48:42;;;;;;;0.20;0.20;;;;;;;25.29;49.71;101074.78;5105428;27;20384;-85
2021/07/04 09:54:01;;;;;;;0.35;0.35;;;;;;;25.55;48.31;101071.03;5075980;27;20451;-86
2021/07/04 09:56:29;;;;;;;0.10;0.10;;;;;;;25.81;48.52;101056.19;5057458;28;20500;-84
2021/07/04 09:58:58;;;;;;;0.10;0.10;;;;;;;25.76;45.81;101044.00;5058306;28;20020;-85
2021/07/04 10:01:37;;;;;;;0.10;0.10;;;;;;;25.96;47.96;101048.66;5057543;28;20028;-86
2021/07/04 10:04:07;;;;;;;0.05;0.05;;;;;;;26.06;48.53;101051.50;5059543;28;20040;-89
2021/07/04 10:06:50;;;;;;;0.30;0.30;;;;;;;26.37;48.00;101057.13;5057166;28;20079;-86
2021/07/04 10:09:18;;;;;;;0.00;0.00;;;;;;;26.27;47.46;101048.88;5064218;28;20475;-82
2021/07/04 10:11:45;;;;;;;0.10;0.10;;;;;;;26.07;46.32;101047.81;5059324;28;20025;-83
2021/07/04 10:14:11;;;;;;;0.10;0.10;;;;;;;26.42;46.70;101045.88;5060496;28;20033;-90
2021/07/04 10:16:42;;;;;;;0.30;0.30;;;;;;;26.63;46.71;101049.47;5053277;28;20112;-87
2021/07/04 10:19:16;;;;;;;0.30;0.30;;;;;;;26.70;44.99;101044.34;5063877;28;20108;-88
2021/07/04 10:21:43;;;;;;;0.13;0.13;;;;;;;26.88;46.38;101041.97;5060824;28;20357;-87
2021/07/04 10:24:12;;;;;;;0.40;0.40;;;;;;;26.83;44.46;101043.34;5055405;28;20059;-87
2021/07/04 10:26:41;;;;;;;0.03;0.03;;;;;;;26.87;44.90;101042.09;5066306;28;20556;-88
2021/07/04 10:29:08;;;;;;;0.10;0.10;;;;;;;26.95;44.67;101036.84;5053857;28;20031;-86
2021/07/04 10:31:36;;;;;;;0.10;0.10;;;;;;;27.07;45.31;101038.50;5060592;28;20029;-86
2021/07/04 10:34:18;;;;;;;0.30;0.30;;;;;;;27.10;45.39;101038.25;5060260;28;20040;-88
2021/07/04 10:37:06;;;;;;;0.10;0.10;;;;;;;27.25;45.28;101035.16;5055622;28;20029;-88
2021/07/04 10:39:34;;;;;;;0.10;0.10;;;;;;;27.23;45.07;101026.31;5058469;28;20032;-87
2021/07/04 10:42:06;;;;;;;0.38;0.38;;;;;;;27.31;45.90;101031.91;5060196;28;20056;-87
2021/07/04 10:44:49;;;;;;;0.08;0.05;;;;;;;27.38;45.43;101022.22;5053139;28;20370;-87
2021/07/04 10:47:20;;;;;;;0.08;0.08;;;;;;;27.35;45.82;101027.91;5055331;28;20025;-86
2021/07/04 10:49:52;;;;;;;0.20;0.20;;;;;;;27.44;45.33;101008.09;5057885;28;20193;-87
2021/07/04 10:52:40;;;;;;;0.10;0.10;;;;;;;27.53;45.60;101009.13;5056978;28;20052;-86
2021/07/04 10:55:10;;;;;;;0.30;0.30;;;;;;;27.63;46.16;101013.72;5052698;28;20033;-87
2021/07/04 10:57:54;;;;;;;0.30;0.30;;;;;;;27.73;45.48;101014.63;5053885;28;20487;-85
2021/07/04 11:03:11;;;;;;;0.03;0.03;;;;;;;27.75;44.28;101008.06;5149059;27;20163;-87
2021/07/04 11:08:30;;;;;;;0.28;0.28;;;;;;;27.82;45.21;100996.59;5059944;28;20445;-85
2021/07/04 11:11:00;;;;;;;0.00;0.00;;;;;;;27.83;44.82;100995.63;5047662;28;20064;-86
2021/07/04 11:13:30;;;;;;;0.10;0.10;;;;;;;27.83;44.33;100982.00;5050455;28;20414;-87
2021/07/04 11:16:15;;;;;;;0.10;0.10;;;;;;;28.02;42.41;100976.56;5030088;28;20369;-85
2021/07/04 11:18:46;;;;;;;0.00;0.00;;;;;;;28.09;42.82;100983.19;5040386;28;20032;-86
2021/07/04 11:21:14;;;;;;;0.00;0.00;;;;;;;28.23;43.23;100983.78;5036435;28;20080;-87
2021/07/04 11:23:40;;;;;;;0.10;0.10;;;;;;;28.34;42.69;100990.97;5046684;28;20079;-89
2021/07/04 11:28:51;;;;;;;0.10;0.10;;;;;;;28.33;43.23;100984.66;5068521;28;20445;-86
2021/07/04 11:33:57;;;;;;;0.10;0.10;;;;;;;28.32;41.22;100973.91;5066321;28;20436;-86
2021/07/04 11:36:27;;;;;;;0.10;0.10;;;;;;;28.42;42.40;100974.75;5058668;28;20032;-85
2021/07/04 11:39:01;;;;;;;0.00;0.00;;;;;;;28.56;42.24;100971.59;5055481;28;20439;-87
2021/07/04 11:44:15;;;;;;;0.00;0.00;;;;;;;29.00;42.32;100965.63;5079915;27;20424;-88
2021/07/04 11:46:44;;;;;;;0.10;0.10;;;;;;;29.08;40.64;100969.50;5050257;28;20068;-86
2021/07/04 11:49:13;;;;;;;0.10;0.10;;;;;;;28.97;37.90;100960.47;5046721;28;20032;-85
2021/07/04 11:51:44;;;;;;;0.13;0.13;;;;;;;29.22;39.93;100944.44;5044716;28;20025;-85
2021/07/04 11:54:17;;;;;;;0.10;0.10;;;;;;;29.38;40.99;100946.53;5046562;28;20033;-85
2021/07/04 11:57:35;;;;;;;0.20;0.20;;;;;;;29.31;39.62;100946.31;5042629;28;20029;-86
2021/07/04 12:00:08;;;;;;;0.00;0.00;;;;;;;29.46;40.15;100937.59;5041079;28;20497;-85
2021/07/04 12:02:47;;;;;;;0.00;0.00;;;;;;;29.35;40.40;100931.34;5043137;28;20108;-84
2021/07/04 12:05:14;;;;;;;0.25;0.25;;;;;;;29.32;40.62;100933.50;5040825;28;20489;-86